Terminal Aerodrome Forecast
Issued by NWS

Home | Current Version | Previous Version | Graphics & Text | Print | Product List | Glossary On
Versions: 1 2 3 4 5 6 7 8 9 10 11 12 13 14 15 16
000
FTUS43 KTOP 281100
TAFFOE
TAF
KFOE 281132Z 2812/2912 22004KT P6SM SKC
     FM281800 20008KT P6SM FEW200
     FM282300 14003KT P6SM SCT150=

USA.gov is the U.S. government's official web portal to all federal, state and local government web resources and services.